createdAt,value
2019-01-22T00:00:48.782Z,69.56
2019-01-22T00:03:57.996Z,69.46
2019-01-22T00:07:00.402Z,69.55
2019-01-22T00:09:41.462Z,69.62
2019-01-22T00:12:22.155Z,69.86
2019-01-22T00:15:03.476Z,69.91
2019-01-22T00:17:44.862Z,69.91
2019-01-22T00:20:54.931Z,69.86
2019-01-22T00:23:46.075Z,69.80
2019-01-22T00:29:06.252Z,70.08
2019-01-22T00:31:47.225Z,69.57
2019-01-22T00:34:28.940Z,70.09
2019-01-22T00:46:23.968Z,69.72
2019-01-22T00:49:33.164Z,69.72
2019-01-22T00:52:22.193Z,69.09
2019-01-22T00:55:31.824Z,69.09
2019-01-22T00:58:05.496Z,69.45
2019-01-22T01:01:14.776Z,69.45
2019-01-22T01:03:55.246Z,69.53
2019-01-22T01:09:39.495Z,69.43
2019-01-22T01:12:20.658Z,69.49
2019-01-22T01:24:08.436Z,69.32
2019-01-22T01:32:49.868Z,69.73
2019-01-22T01:35:59.972Z,69.93
2019-01-22T01:42:11.427Z,70.20
2019-01-22T01:47:53.344Z,70.31
2019-01-22T01:56:33.140Z,70.08
2019-01-22T01:59:03.988Z,70.22
2019-01-22T02:04:46.616Z,70.44
2019-01-22T02:07:27.710Z,70.43
2019-01-22T02:10:09.400Z,70.38
2019-01-22T02:12:50.457Z,70.31
2019-01-22T02:18:19.982Z,70.29
2019-01-22T02:21:01.647Z,70.18
2019-01-22T02:23:42.864Z,70.01
2019-01-22T02:26:24.322Z,69.90
2019-01-22T02:29:32.114Z,69.96
2019-01-22T02:32:39.921Z,70.01
2019-01-22T02:35:20.999Z,69.92
2019-01-22T02:38:02.953Z,69.77
2019-01-22T02:40:44.784Z,69.71
2019-01-22T02:43:26.388Z,69.71
2019-01-22T02:46:08.054Z,69.73
2019-01-22T02:48:49.669Z,69.59
2019-01-22T02:51:57.620Z,69.44
2019-01-22T02:55:05.378Z,69.45
2019-01-22T02:57:46.793Z,69.57
2019-01-22T03:00:27.070Z,69.58
2019-01-22T03:03:08.287Z,69.51
2019-01-22T03:05:50.066Z,69.64
2019-01-22T03:09:16.669Z,69.59
2019-01-22T03:15:42.817Z,69.62
2019-01-22T03:22:28.017Z,69.53
2019-01-22T03:25:37.143Z,69.58
2019-01-22T03:28:39.651Z,69.59
2019-01-22T03:31:21.824Z,69.67
2019-01-22T03:34:03.578Z,69.83
2019-01-22T03:36:44.540Z,69.91
2019-01-22T03:39:25.583Z,69.88
2019-01-22T03:42:07.979Z,69.87
2019-01-22T03:45:15.790Z,69.81
2019-01-22T03:48:23.568Z,69.76
2019-01-22T03:51:33.043Z,69.63
2019-01-22T03:54:14.329Z,69.59
2019-01-22T03:57:23.275Z,69.43
2019-01-22T04:00:06.196Z,69.34
2019-01-22T04:02:47.899Z,69.42
2019-01-22T04:05:28.789Z,69.22
2019-01-22T04:08:11.332Z,69.09
2019-01-22T04:10:52.767Z,68.96
2019-01-22T04:13:42.164Z,68.97
2019-01-22T04:16:23.239Z,68.98
2019-01-22T04:18:54.138Z,69.02
2019-01-22T04:24:42.905Z,68.84
2019-01-22T04:27:24.890Z,68.78
2019-01-22T04:30:34.268Z,68.66
2019-01-22T04:33:42.426Z,68.64
2019-01-22T04:36:24.434Z,68.59
2019-01-22T04:39:06.349Z,68.83
2019-01-22T04:41:48.352Z,69.06
2019-01-22T04:44:56.096Z,69.17
2019-01-22T04:48:03.715Z,69.40
2019-01-22T04:54:32.691Z,69.46
2019-01-22T04:57:40.523Z,69.47
2019-01-22T05:00:48.301Z,69.50
2019-01-22T05:03:56.152Z,69.38
2019-01-22T05:07:04.128Z,69.25
2019-01-22T05:10:12.677Z,69.26
2019-01-22T05:13:20.580Z,69.20
2019-01-22T05:19:34.081Z,69.24
2019-01-22T05:32:12.585Z,69.03
2019-01-22T05:38:22.741Z,68.96
2019-01-22T05:41:30.717Z,68.88
2019-01-22T05:44:12.331Z,68.86
2019-01-22T05:50:44.831Z,68.98
2019-01-22T05:53:52.618Z,68.83
2019-01-22T05:56:45.180Z,68.74
2019-01-22T05:59:53.077Z,68.83
2019-01-22T06:02:34.610Z,68.88
2019-01-22T06:05:44.154Z,68.94
2019-01-22T06:09:02.820Z,69.03
2019-01-22T06:12:10.544Z,68.87
2019-01-22T06:15:18.851Z,68.64
2019-01-22T06:18:13.333Z,68.60
2019-01-22T06:20:58.750Z,68.66
2019-01-22T06:23:39.579Z,68.68
2019-01-22T06:29:09.878Z,68.64
2019-01-22T06:31:51.100Z,68.63
2019-01-22T06:34:32.923Z,68.55
2019-01-22T06:37:14.677Z,68.54
2019-01-22T06:43:37.449Z,68.50
2019-01-22T06:46:40.118Z,68.51
2019-01-22T06:49:21.810Z,68.50
2019-01-22T06:52:03.479Z,68.69
2019-01-22T06:55:12.689Z,68.93
2019-01-22T06:58:20.590Z,69.11
2019-01-22T07:01:28.958Z,69.25
2019-01-22T07:04:10.191Z,69.30
2019-01-22T07:06:52.059Z,69.35
2019-01-22T07:09:33.577Z,69.17
2019-01-22T07:12:41.480Z,69.32
2019-01-22T07:15:49.774Z,69.34
2019-01-22T07:18:31.192Z,69.20
2019-01-22T07:21:12.968Z,69.32
2019-01-22T07:24:21.518Z,69.28
2019-01-22T07:27:47.987Z,69.08
2019-01-22T07:30:57.743Z,68.80
2019-01-22T07:33:40.491Z,68.59
2019-01-22T07:36:48.747Z,68.40
2019-01-22T07:42:34.938Z,68.23
2019-01-22T07:45:43.332Z,68.03
2019-01-22T07:48:56.066Z,67.88
2019-01-22T07:51:38.730Z,67.71
2019-01-22T07:54:20.479Z,67.65
2019-01-22T07:57:02.048Z,67.79
2019-01-22T07:59:43.642Z,67.73
2019-01-22T08:02:51.738Z,67.82
2019-01-22T08:06:18.139Z,67.99
2019-01-22T08:09:25.959Z,68.02
2019-01-22T08:12:07.883Z,67.87
2019-01-22T08:15:15.697Z,67.59
2019-01-22T08:21:22.940Z,67.40
2019-01-22T08:24:04.585Z,67.33
2019-01-22T08:26:45.696Z,67.32
2019-01-22T08:29:27.281Z,67.42
2019-01-22T08:32:36.651Z,67.41
2019-01-22T08:35:44.317Z,67.41
2019-01-22T08:38:25.788Z,67.15
2019-01-22T08:41:07.345Z,67.12
2019-01-22T08:47:34.012Z,67.05
2019-01-22T08:50:41.771Z,66.77
2019-01-22T08:53:49.711Z,66.56
2019-01-22T08:59:56.445Z,66.34
2019-01-22T09:02:38.004Z,66.25
2019-01-22T09:05:19.182Z,66.11
2019-01-22T09:08:39.455Z,66.10
2019-01-22T09:11:35.771Z,65.92
2019-01-22T09:14:17.330Z,65.71
2019-01-22T09:16:58.338Z,65.56
2019-01-22T09:20:01.058Z,65.48
2019-01-22T09:22:41.883Z,65.42
2019-01-22T09:25:43.860Z,65.29
2019-01-22T09:28:34.664Z,65.14
2019-01-22T09:31:27.966Z,65.01
2019-01-22T09:34:38.849Z,65.03
2019-01-22T09:37:20.398Z,64.97
2019-01-22T09:39:51.055Z,64.89
2019-01-22T09:42:23.612Z,64.76
2019-01-22T09:44:54.279Z,64.63
2019-01-22T09:47:24.368Z,64.58
2019-01-22T09:49:57.075Z,64.48
2019-01-22T09:55:37.271Z,64.29
2019-01-22T09:58:18.875Z,64.08
2019-01-22T10:01:08.186Z,64.01
2019-01-22T10:03:49.471Z,63.89
2019-01-22T10:06:31.422Z,63.66
2019-01-22T10:09:14.935Z,63.34
2019-01-22T10:12:23.954Z,63.07
2019-01-22T10:21:13.408Z,62.52
2019-01-22T10:27:12.192Z,61.99
2019-01-22T10:30:12.953Z,61.78
2019-01-22T10:32:54.880Z,61.58
2019-01-22T10:35:39.001Z,61.41
2019-01-22T10:38:19.903Z,61.36
2019-01-22T10:44:13.238Z,60.89
2019-01-22T10:46:43.573Z,60.87
2019-01-22T10:49:13.973Z,60.70
2019-01-22T10:55:20.357Z,59.83
2019-01-22T11:00:56.802Z,59.88
2019-01-22T11:03:27.341Z,59.85
2019-01-22T11:05:57.748Z,59.70
2019-01-22T11:08:27.946Z,59.46
2019-01-22T11:11:16.976Z,59.29
2019-01-22T11:14:01.248Z,58.95
2019-01-22T11:16:51.019Z,58.92
2019-01-22T11:19:54.156Z,58.81
2019-01-22T11:22:25.382Z,58.76
2019-01-22T11:24:57.446Z,58.61
2019-01-22T11:27:28.220Z,58.65
2019-01-22T11:34:04.020Z,58.08
2019-01-22T11:36:46.963Z,57.88
2019-01-22T11:42:52.320Z,57.15
2019-01-22T11:45:23.167Z,56.77
2019-01-22T11:47:53.737Z,56.71
2019-01-22T11:50:24.041Z,56.78
2019-01-22T11:52:54.797Z,56.51
2019-01-22T11:55:25.493Z,56.81
2019-01-22T11:58:00.263Z,56.84
2019-01-22T12:00:38.571Z,57.10
2019-01-22T12:03:10.201Z,57.42
2019-01-22T12:05:41.223Z,57.73
2019-01-22T12:08:11.709Z,58.17
2019-01-22T12:10:42.127Z,58.43
2019-01-22T12:13:13.867Z,58.58
2019-01-22T12:15:44.577Z,58.78
2019-01-22T12:18:15.174Z,58.74
2019-01-22T12:20:47.669Z,58.73
2019-01-22T12:23:18.409Z,58.53
2019-01-22T12:25:50.000Z,58.13
2019-01-22T12:28:20.552Z,57.85
2019-01-22T12:30:51.135Z,57.43
2019-01-22T12:33:21.449Z,57.07
2019-01-22T12:35:52.024Z,56.89
2019-01-22T12:38:22.991Z,56.68
2019-01-22T12:41:32.241Z,56.79
2019-01-22T12:44:40.132Z,56.41
2019-01-22T12:47:22.094Z,56.50
2019-01-22T12:50:03.891Z,56.34
2019-01-22T12:52:44.987Z,56.31
2019-01-22T12:55:54.570Z,56.46
2019-01-22T13:01:39.675Z,56.12
2019-01-22T13:07:03.769Z,55.66
2019-01-22T13:09:44.931Z,55.65
2019-01-22T13:12:26.903Z,55.75
2019-01-22T13:15:12.727Z,55.52
2019-01-22T13:17:53.582Z,55.36
2019-01-22T13:20:35.797Z,55.37
2019-01-22T13:23:20.146Z,55.12
2019-01-22T13:26:21.042Z,55.17
2019-01-22T13:28:51.840Z,55.23
2019-01-22T13:35:00.735Z,55.36
2019-01-22T13:37:41.592Z,55.20
2019-01-22T13:40:23.413Z,55.22
2019-01-22T13:45:54.709Z,55.28
2019-01-22T13:49:05.785Z,55.17
2019-01-22T13:51:55.090Z,55.21
2019-01-22T13:55:04.897Z,55.12
2019-01-22T13:57:36.650Z,55.38
2019-01-22T14:00:09.058Z,55.66
2019-01-22T14:02:41.285Z,55.63
2019-01-22T14:05:13.090Z,55.82
2019-01-22T14:08:22.782Z,56.06
2019-01-22T14:10:54.017Z,56.33
2019-01-22T14:13:27.726Z,56.65
2019-01-22T14:16:16.875Z,56.65
2019-01-22T14:18:58.794Z,56.70
2019-01-22T14:21:41.002Z,56.75
2019-01-22T14:24:22.078Z,56.95
2019-01-22T14:27:12.070Z,57.05
2019-01-22T14:33:24.689Z,57.30
2019-01-22T14:36:24.699Z,57.37
2019-01-22T14:42:08.470Z,57.80
2019-01-22T14:44:51.504Z,58.02
2019-01-22T14:47:33.923Z,58.28
2019-01-22T14:53:15.990Z,58.70
2019-01-22T14:56:32.334Z,59.09
2019-01-22T14:59:38.383Z,59.18
2019-01-22T15:02:50.133Z,59.15
2019-01-22T15:11:27.292Z,59.59
2019-01-22T15:20:30.853Z,60.44
2019-01-22T15:23:01.997Z,60.70
2019-01-22T15:25:33.321Z,61.11
2019-01-22T15:34:56.993Z,62.41
2019-01-22T15:37:38.933Z,62.48
2019-01-22T15:40:20.915Z,62.59
2019-01-22T15:43:10.488Z,62.46
2019-01-22T15:45:59.758Z,62.63
2019-01-22T15:48:41.753Z,61.92
2019-01-22T15:51:23.694Z,60.74
2019-01-22T15:54:07.438Z,59.78
2019-01-22T15:56:49.102Z,59.07
2019-01-22T15:59:19.874Z,58.41
2019-01-22T16:01:52.252Z,57.88
2019-01-22T16:04:27.705Z,57.35
2019-01-22T16:07:00.810Z,56.78
2019-01-22T16:09:32.811Z,56.93
2019-01-22T16:12:04.451Z,56.93
2019-01-22T16:14:40.810Z,56.78
2019-01-22T16:17:11.941Z,56.90
2019-01-22T16:19:42.522Z,56.96
2019-01-22T16:22:13.164Z,56.91
2019-01-22T16:24:44.399Z,56.84
2019-01-22T16:27:14.840Z,56.92
2019-01-22T16:29:45.890Z,57.10
2019-01-22T16:32:17.857Z,57.25
2019-01-22T16:34:49.662Z,57.32
2019-01-22T16:37:20.333Z,57.41
2019-01-22T16:39:53.877Z,57.50
2019-01-22T16:42:24.685Z,57.76
2019-01-22T16:44:55.803Z,57.88
2019-01-22T16:47:27.256Z,58.07
2019-01-22T16:50:04.710Z,58.08
2019-01-22T16:52:35.834Z,58.29
2019-01-22T16:55:13.593Z,58.33
2019-01-22T16:57:44.424Z,58.66
2019-01-22T17:00:18.680Z,58.79
2019-01-22T17:02:49.215Z,58.79
2019-01-22T17:05:23.672Z,58.95
2019-01-22T17:07:56.920Z,58.84
2019-01-22T17:10:28.749Z,58.74
2019-01-22T17:12:59.321Z,58.88
2019-01-22T17:15:31.005Z,58.99
2019-01-22T17:18:09.153Z,58.81
2019-01-22T17:20:47.692Z,58.84
2019-01-22T17:23:16.847Z,58.97
2019-01-22T17:25:48.182Z,59.10
2019-01-22T17:28:18.849Z,59.05
2019-01-22T17:30:49.972Z,58.96
2019-01-22T17:33:37.127Z,58.94
2019-01-22T17:36:09.192Z,59.11
2019-01-22T17:38:43.562Z,59.15
2019-01-22T17:44:26.640Z,59.27
2019-01-22T17:47:17.411Z,59.50
2019-01-22T17:49:51.120Z,59.49
2019-01-22T17:52:21.912Z,59.51
2019-01-22T17:54:52.559Z,59.86
2019-01-22T17:57:23.199Z,60.06
2019-01-22T17:59:57.232Z,60.10
2019-01-22T18:02:34.640Z,60.33
2019-01-22T18:05:01.102Z,60.50
2019-01-22T18:07:34.114Z,60.67
2019-01-22T18:10:44.255Z,60.86
2019-01-22T18:13:35.728Z,60.82
2019-01-22T18:16:07.182Z,60.69
2019-01-22T18:25:18.179Z,60.62
2019-01-22T18:31:29.968Z,60.52
2019-01-22T18:34:31.331Z,60.61
2019-01-22T18:37:02.063Z,60.84
2019-01-22T18:39:33.046Z,60.93
2019-01-22T18:42:03.932Z,60.99
2019-01-22T18:44:35.686Z,60.92
2019-01-22T18:47:07.222Z,61.11
2019-01-22T18:49:38.263Z,61.20
2019-01-22T18:52:09.041Z,61.25
2019-01-22T18:54:39.222Z,61.33
2019-01-22T18:57:11.213Z,61.50
2019-01-22T18:59:43.057Z,61.61
2019-01-22T19:02:14.301Z,61.78
2019-01-22T19:04:44.662Z,61.94
2019-01-22T19:07:18.277Z,62.02
2019-01-22T19:09:49.052Z,62.07
2019-01-22T19:12:19.485Z,62.13
2019-01-22T19:14:49.704Z,62.13
2019-01-22T19:17:20.886Z,62.02
2019-01-22T19:19:51.391Z,61.89
2019-01-22T19:22:21.755Z,61.75
2019-01-22T19:24:53.009Z,61.78
2019-01-22T19:27:24.809Z,61.73
2019-01-22T19:29:55.489Z,61.70
2019-01-22T19:32:25.957Z,61.68
2019-01-22T19:34:56.231Z,61.78
2019-01-22T19:37:27.047Z,62.15
2019-01-22T19:39:57.540Z,62.15
2019-01-22T19:42:28.324Z,62.19
2019-01-22T19:44:58.966Z,62.35
2019-01-22T19:51:32.003Z,62.33
2019-01-22T19:54:13.083Z,62.24
2019-01-22T20:00:18.740Z,62.53
2019-01-22T20:03:19.487Z,62.48
2019-01-22T20:06:21.355Z,62.46
2019-01-22T20:09:05.023Z,62.51
2019-01-22T20:11:48.565Z,62.72
2019-01-22T20:17:47.329Z,62.99
2019-01-22T20:26:41.345Z,63.84
2019-01-22T20:29:23.263Z,64.03
2019-01-22T20:32:05.153Z,64.06
2019-01-22T20:34:46.118Z,64.04
2019-01-22T20:37:39.611Z,63.97
2019-01-22T20:40:20.736Z,64.08
2019-01-22T20:43:01.824Z,64.43
2019-01-22T20:45:43.613Z,64.62
2019-01-22T20:48:25.324Z,64.79
2019-01-22T20:51:06.334Z,64.86
2019-01-22T20:53:55.615Z,64.79
2019-01-22T20:56:36.926Z,64.79
2019-01-22T20:59:38.331Z,64.46
2019-01-22T21:02:19.692Z,64.75
2019-01-22T21:05:20.523Z,64.77
2019-01-22T21:08:01.528Z,64.78
2019-01-22T21:11:03.464Z,64.65
2019-01-22T21:16:37.012Z,64.75
2019-01-22T21:19:07.930Z,64.97
2019-01-22T21:21:38.419Z,65.35
2019-01-22T21:24:09.017Z,65.49
2019-01-22T21:26:40.052Z,65.47
2019-01-22T21:29:11.934Z,65.44
2019-01-22T21:31:42.484Z,65.47
2019-01-22T21:34:12.812Z,65.55
2019-01-22T21:36:43.058Z,65.69
2019-01-22T21:39:17.208Z,65.70
2019-01-22T21:42:26.389Z,65.87
2019-01-22T21:44:57.145Z,65.75
2019-01-22T21:51:18.977Z,65.54
2019-01-22T21:54:00.445Z,65.54
2019-01-22T21:56:42.003Z,65.90
2019-01-22T21:59:26.498Z,65.83
2019-01-22T22:01:56.789Z,65.85
2019-01-22T22:11:01.729Z,65.98
2019-01-22T22:13:42.971Z,65.89
2019-01-22T22:16:25.908Z,65.98
2019-01-22T22:19:06.958Z,66.22
2019-01-22T22:21:47.904Z,66.30
2019-01-22T22:27:31.769Z,66.42
2019-01-22T22:30:13.487Z,66.45
2019-01-22T22:32:54.564Z,66.46
2019-01-22T22:35:43.732Z,66.44
2019-01-22T22:38:32.917Z,66.53
2019-01-22T22:41:21.984Z,67.34
2019-01-22T22:44:12.036Z,67.34
2019-01-22T22:47:22.064Z,67.23
2019-01-22T22:50:23.487Z,67.30
2019-01-22T22:53:24.014Z,67.30
2019-01-22T22:56:05.863Z,67.32
2019-01-22T23:02:16.591Z,67.45
2019-01-22T23:11:19.216Z,67.81
2019-01-22T23:14:00.597Z,67.68
2019-01-22T23:19:47.507Z,67.75
2019-01-22T23:22:56.554Z,67.69
2019-01-22T23:28:55.361Z,67.71
2019-01-22T23:34:44.657Z,67.87
2019-01-22T23:37:26.312Z,67.89
2019-01-22T23:40:15.508Z,67.90
2019-01-22T23:43:23.672Z,68.05
2019-01-22T23:46:06.628Z,68.09
2019-01-22T23:49:07.417Z,68.25
2019-01-22T23:52:08.864Z,68.46
2019-01-22T23:54:50.488Z,68.63
2019-01-22T23:57:32.359Z,68.67
